createdAt,value
2023-05-20T00:02:16.380Z,90.10
2023-05-20T00:07:19.261Z,90.00
2023-05-20T00:12:22.044Z,90.12
2023-05-20T00:17:26.678Z,89.98
2023-05-20T00:22:29.656Z,89.58
2023-05-20T00:27:32.516Z,89.43
2023-05-20T00:32:35.436Z,89.41
2023-05-20T00:37:38.718Z,89.51
2023-05-20T00:42:41.573Z,89.43
2023-05-20T00:47:44.377Z,89.48
2023-05-20T00:52:48.372Z,89.30
2023-05-20T00:57:52.224Z,89.57
2023-05-20T01:02:55.566Z,89.69
2023-05-20T01:07:58.838Z,89.77
2023-05-20T01:13:03.662Z,90.02
2023-05-20T01:18:07.657Z,90.12
2023-05-20T01:23:10.677Z,90.24
2023-05-20T01:28:17.956Z,90.31
2023-05-20T01:33:21.914Z,90.15
2023-05-20T01:38:24.834Z,90.61
2023-05-20T01:43:27.642Z,90.39
2023-05-20T01:48:30.548Z,90.24
2023-05-20T01:53:33.666Z,90.43
2023-05-20T01:58:36.620Z,90.44
2023-05-20T02:03:39.510Z,90.32
2023-05-20T02:08:42.289Z,90.28
2023-05-20T02:13:45.118Z,90.35
2023-05-20T02:18:47.990Z,90.17
2023-05-20T02:23:51.047Z,90.19
2023-05-20T02:28:53.894Z,90.27
2023-05-20T02:33:56.857Z,90.13
2023-05-20T02:39:01.334Z,90.65
2023-05-20T02:44:04.390Z,90.34
2023-05-20T02:49:07.270Z,90.54
2023-05-20T02:54:10.518Z,90.67
2023-05-20T02:59:13.420Z,90.73
2023-05-20T03:04:19.283Z,90.43
2023-05-20T03:09:22.265Z,90.59
2023-05-20T03:14:25.122Z,90.61
2023-05-20T03:19:28.136Z,90.85
2023-05-20T03:24:31.051Z,90.70
2023-05-20T03:29:33.958Z,90.70
2023-05-20T03:34:36.802Z,90.57
2023-05-20T03:39:39.739Z,90.72
2023-05-20T03:44:42.585Z,90.39
2023-05-20T03:49:46.156Z,90.42
2023-05-20T03:54:48.949Z,90.20
2023-05-20T03:59:51.888Z,89.72
2023-05-20T04:04:57.841Z,89.63
2023-05-20T04:10:00.916Z,89.56
2023-05-20T04:15:03.993Z,89.26
2023-05-20T04:20:07.738Z,88.87
2023-05-20T04:25:10.643Z,88.70
2023-05-20T04:30:14.004Z,88.40
2023-05-20T04:35:17.057Z,88.05
2023-05-20T04:40:21.047Z,87.67
2023-05-20T04:45:24.038Z,87.24
2023-05-20T04:50:27.385Z,86.72
2023-05-20T04:55:30.942Z,86.30
2023-05-20T05:00:34.494Z,85.67
2023-05-20T05:05:38.936Z,85.25
2023-05-20T05:10:41.810Z,84.56
2023-05-20T05:15:44.605Z,83.97
2023-05-20T05:20:47.411Z,83.51
2023-05-20T05:25:53.915Z,83.14
2023-05-20T05:30:56.922Z,82.52
2023-05-20T05:36:01.272Z,81.74
2023-05-20T05:41:04.188Z,81.00
2023-05-20T05:46:07.164Z,80.37
2023-05-20T05:51:10.407Z,79.92
2023-05-20T05:56:13.140Z,79.67
2023-05-20T06:01:16.086Z,79.69
2023-05-20T06:06:18.920Z,78.63
2023-05-20T06:11:23.020Z,77.94
2023-05-20T06:16:25.920Z,77.19
2023-05-20T06:21:28.919Z,76.58
2023-05-20T06:26:31.712Z,76.65
2023-05-20T06:31:34.623Z,75.70
2023-05-20T06:36:37.519Z,75.52
2023-05-20T06:41:40.342Z,74.92
2023-05-20T06:46:43.263Z,74.87
2023-05-20T06:51:46.161Z,74.21
2023-05-20T06:56:49.065Z,73.28
2023-05-20T07:01:52.195Z,73.82
2023-05-20T07:06:55.389Z,73.28
2023-05-20T07:11:58.149Z,73.52
2023-05-20T07:17:02.345Z,73.34
2023-05-20T07:22:05.293Z,73.43
2023-05-20T07:27:08.568Z,72.50
2023-05-20T07:32:11.516Z,72.65
2023-05-20T07:37:14.888Z,71.99
2023-05-20T07:42:17.946Z,71.42
2023-05-20T07:47:21.176Z,70.71
2023-05-20T07:52:25.450Z,70.26
2023-05-20T07:57:28.329Z,70.61
2023-05-20T08:02:31.356Z,69.97
2023-05-20T08:07:34.721Z,69.56
2023-05-20T08:12:37.746Z,68.74
2023-05-20T08:17:40.789Z,68.06
2023-05-20T08:22:43.721Z,68.66
2023-05-20T08:27:46.546Z,68.80
2023-05-20T08:32:49.490Z,68.34
2023-05-20T08:37:54.135Z,67.93
2023-05-20T08:42:59.164Z,65.95
2023-05-20T08:48:02.152Z,65.66
2023-05-20T08:53:05.121Z,65.58
2023-05-20T08:58:08.057Z,65.36
2023-05-20T09:03:11.515Z,64.31
2023-05-20T09:08:14.432Z,63.43
2023-05-20T09:13:17.226Z,62.42
2023-05-20T09:18:20.127Z,60.88
2023-05-20T09:23:22.950Z,60.46
2023-05-20T09:28:25.824Z,59.39
2023-05-20T09:33:30.162Z,57.27
2023-05-20T09:38:38.080Z,57.15
2023-05-20T09:43:41.660Z,55.57
2023-05-20T09:48:44.429Z,53.79
2023-05-20T09:53:47.386Z,53.79
2023-05-20T09:58:51.149Z,53.52
2023-05-20T10:03:53.980Z,53.46
2023-05-20T10:09:32.863Z,53.12
2023-05-20T10:14:53.023Z,52.92
2023-05-20T10:19:59.734Z,52.05
2023-05-20T10:25:07.377Z,52.30
2023-05-20T10:30:17.473Z,50.07
2023-05-20T10:35:26.713Z,48.01
2023-05-20T10:40:29.624Z,47.47
2023-05-20T10:45:32.991Z,46.76
2023-05-20T10:50:37.189Z,46.82
2023-05-20T10:55:41.656Z,43.12
2023-05-20T11:00:44.641Z,41.73
2023-05-20T11:05:48.435Z,39.44
2023-05-20T11:11:00.922Z,36.39
2023-05-20T11:16:04.683Z,35.55
2023-05-20T11:21:08.082Z,35.13
2023-05-20T11:26:11.132Z,34.20
2023-05-20T11:31:13.922Z,33.91
2023-05-20T11:36:27.391Z,33.08
2023-05-20T11:41:31.076Z,31.47
2023-05-20T11:46:33.957Z,29.63
2023-05-20T11:51:37.924Z,27.74
2023-05-20T11:56:45.427Z,26.60
2023-05-20T12:01:48.255Z,26.15
2023-05-20T12:06:51.283Z,24.14
2023-05-20T12:11:56.671Z,23.46
2023-05-20T12:16:59.958Z,24.22
2023-05-20T12:22:02.838Z,23.74
2023-05-20T12:27:06.444Z,22.84
2023-05-20T12:32:09.358Z,22.67
2023-05-20T12:37:12.290Z,21.57
2023-05-20T12:42:15.327Z,21.22
2023-05-20T12:47:18.355Z,20.59
2023-05-20T12:52:22.771Z,19.34
2023-05-20T12:57:25.982Z,19.11
2023-05-20T13:02:29.075Z,19.90
2023-05-20T13:07:32.913Z,21.65
2023-05-20T13:12:35.885Z,22.98
2023-05-20T13:17:39.525Z,23.77
2023-05-20T13:22:42.514Z,23.43
2023-05-20T13:27:45.261Z,22.51
2023-05-20T13:32:48.192Z,21.77
2023-05-20T13:37:51.239Z,21.11
2023-05-20T13:42:54.356Z,20.69
2023-05-20T13:47:57.498Z,20.46
2023-05-20T13:53:00.383Z,19.84
2023-05-20T13:58:03.740Z,20.03
2023-05-20T14:03:09.232Z,20.10
2023-05-20T14:08:12.711Z,19.52
2023-05-20T14:13:15.570Z,19.14
2023-05-20T14:18:19.017Z,18.73
2023-05-20T14:23:21.876Z,18.25
2023-05-20T14:28:24.762Z,18.88
2023-05-20T14:33:27.757Z,20.64
2023-05-20T14:38:30.966Z,22.07
2023-05-20T14:43:34.464Z,24.01
2023-05-20T14:48:37.390Z,24.73
2023-05-20T14:53:40.247Z,26.06
2023-05-20T14:58:43.062Z,27.00
2023-05-20T15:03:45.969Z,28.43
2023-05-20T15:08:48.868Z,28.77
2023-05-20T15:13:51.689Z,29.67
2023-05-20T15:18:54.930Z,30.50
2023-05-20T15:23:57.849Z,30.54
2023-05-20T15:29:00.833Z,31.05
2023-05-20T15:34:03.707Z,32.01
2023-05-20T15:39:06.534Z,32.46
2023-05-20T15:44:09.483Z,33.24
2023-05-20T15:49:12.734Z,34.13
2023-05-20T15:54:15.575Z,34.76
2023-05-20T15:59:18.415Z,35.27
2023-05-20T16:04:21.805Z,35.65
2023-05-20T16:09:24.767Z,36.02
2023-05-20T16:14:27.616Z,36.25
2023-05-20T16:19:30.605Z,36.73
2023-05-20T16:24:33.721Z,37.03
2023-05-20T16:29:37.393Z,38.00
2023-05-20T16:34:40.147Z,38.13
2023-05-20T16:39:42.898Z,38.54
2023-05-20T16:44:46.778Z,38.71
2023-05-20T16:49:49.648Z,39.02
2023-05-20T16:54:52.557Z,39.98
2023-05-20T16:59:55.989Z,40.05
2023-05-20T17:04:58.853Z,40.47
2023-05-20T17:10:01.793Z,40.84
2023-05-20T17:15:06.223Z,41.41
2023-05-20T17:20:09.668Z,41.82
2023-05-20T17:25:12.745Z,42.11
2023-05-20T17:30:15.669Z,43.01
2023-05-20T17:35:20.406Z,43.58
2023-05-20T17:40:23.279Z,43.91
2023-05-20T17:45:26.346Z,44.35
2023-05-20T17:50:29.211Z,44.99
2023-05-20T17:55:32.932Z,45.35
2023-05-20T18:00:42.111Z,45.89
2023-05-20T18:05:45.128Z,45.99
2023-05-20T18:10:47.934Z,46.36
2023-05-20T18:15:51.078Z,47.29
2023-05-20T18:20:53.859Z,47.97
2023-05-20T18:25:56.807Z,48.78
2023-05-20T18:30:59.682Z,49.13
2023-05-20T18:36:02.699Z,49.97
2023-05-20T18:41:05.523Z,50.95
2023-05-20T18:46:08.432Z,51.83
2023-05-20T18:51:11.330Z,52.69
2023-05-20T18:56:14.304Z,53.42
2023-05-20T19:01:17.189Z,53.90
2023-05-20T19:06:21.998Z,54.74
2023-05-20T19:11:24.988Z,55.67
2023-05-20T19:16:27.966Z,57.09
2023-05-20T19:21:32.702Z,57.41
2023-05-20T19:26:35.580Z,58.19
2023-05-20T19:31:41.435Z,58.47
2023-05-20T19:36:45.464Z,59.52
2023-05-20T19:41:48.786Z,59.99
2023-05-20T19:46:53.433Z,60.18
2023-05-20T19:51:56.277Z,60.51
2023-05-20T19:56:59.178Z,60.73
2023-05-20T20:02:03.070Z,60.92
2023-05-20T20:07:08.118Z,61.34
2023-05-20T20:12:10.932Z,61.42
2023-05-20T20:17:15.769Z,62.10
2023-05-20T20:22:18.645Z,62.83
2023-05-20T20:27:23.896Z,63.63
2023-05-20T20:32:27.451Z,63.88
2023-05-20T20:37:30.472Z,64.08
2023-05-20T20:42:33.492Z,64.09
2023-05-20T20:47:38.748Z,64.21
2023-05-20T20:52:42.924Z,64.36
2023-05-20T20:57:45.896Z,64.70
2023-05-20T21:02:48.817Z,64.91
2023-05-20T21:07:58.250Z,65.32
2023-05-20T21:13:01.409Z,65.72
2023-05-20T21:18:04.231Z,65.95
2023-05-20T21:23:07.303Z,65.94
2023-05-20T21:28:10.364Z,66.27
2023-05-20T21:33:13.363Z,66.34
2023-05-20T21:38:16.252Z,66.28
2023-05-20T21:43:19.106Z,66.49
2023-05-20T21:48:22.051Z,66.57
2023-05-20T21:53:24.899Z,66.69
2023-05-20T21:58:27.878Z,66.87
2023-05-20T22:03:32.956Z,66.85
2023-05-20T22:08:35.892Z,67.11
2023-05-20T22:13:43.302Z,67.30
2023-05-20T22:18:49.679Z,67.75
2023-05-20T22:23:52.708Z,67.87
2023-05-20T22:28:55.457Z,67.97
2023-05-20T22:33:58.458Z,68.11
2023-05-20T22:39:02.428Z,68.20
2023-05-20T22:44:05.502Z,68.43
2023-05-20T22:49:10.329Z,68.45
2023-05-20T22:54:13.140Z,68.41
2023-05-20T22:59:15.908Z,68.47
2023-05-20T23:04:18.953Z,68.48
2023-05-20T23:09:21.862Z,68.62
2023-05-20T23:14:24.712Z,68.78
2023-05-20T23:19:27.552Z,68.81
2023-05-20T23:24:30.908Z,69.15
2023-05-20T23:29:33.862Z,69.40
2023-05-20T23:34:36.654Z,69.67
2023-05-20T23:39:39.421Z,69.79
2023-05-20T23:44:42.245Z,69.57
2023-05-20T23:49:47.161Z,69.54
2023-05-20T23:54:52.338Z,69.80
2023-05-20T23:59:55.113Z,69.83
